createdAt,value
2023-04-01T00:00:34.433Z,100.00
2023-04-01T00:03:01.918Z,100.00
2023-04-01T00:05:28.549Z,100.00
2023-04-01T00:07:54.996Z,100.00
2023-04-01T00:10:21.519Z,100.00
2023-04-01T00:12:47.985Z,100.00
2023-04-01T00:15:14.442Z,100.00
2023-04-01T00:17:42.959Z,100.00
2023-04-01T00:20:10.339Z,100.00
2023-04-01T00:22:37.200Z,100.00
2023-04-01T00:25:04.321Z,100.00
2023-04-01T00:27:30.775Z,100.00
2023-04-01T00:29:57.310Z,100.00
2023-04-01T00:32:23.824Z,100.00
2023-04-01T00:34:53.476Z,100.00
2023-04-01T00:37:20.635Z,100.00
2023-04-01T00:39:47.075Z,100.00
2023-04-01T00:42:14.883Z,100.00
2023-04-01T00:44:42.098Z,100.00
2023-04-01T00:47:08.695Z,100.00
2023-04-01T00:49:40.274Z,100.00
2023-04-01T00:52:08.157Z,100.00
2023-04-01T00:54:35.573Z,100.00
2023-04-01T00:57:04.860Z,100.00
2023-04-01T00:59:33.732Z,100.00
2023-04-01T01:02:01.536Z,100.00
2023-04-01T01:04:29.624Z,100.00
2023-04-01T01:07:15.424Z,100.00
2023-04-01T01:10:00.509Z,100.00
2023-04-01T01:12:32.837Z,100.00
2023-04-01T01:14:59.271Z,100.00
2023-04-01T01:17:25.728Z,100.00
2023-04-01T01:19:52.284Z,100.00
2023-04-01T01:22:37.482Z,100.00
2023-04-01T01:25:09.936Z,100.00
2023-04-01T01:27:39.089Z,100.00
2023-04-01T01:30:08.883Z,100.00
2023-04-01T01:32:38.516Z,100.00
2023-04-01T01:35:07.840Z,100.00
2023-04-01T01:37:34.371Z,100.00
2023-04-01T01:40:06.097Z,100.00
2023-04-01T01:42:34.606Z,100.00
2023-04-01T01:45:02.197Z,100.00
2023-04-01T01:47:29.752Z,100.00
2023-04-01T01:49:56.831Z,100.00
2023-04-01T01:52:24.276Z,100.00
2023-04-01T01:54:55.026Z,100.00
2023-04-01T01:57:27.070Z,100.00
2023-04-01T01:59:55.561Z,100.00
2023-04-01T02:02:23.553Z,100.00
2023-04-01T02:04:50.768Z,100.00
2023-04-01T02:07:21.198Z,100.00
2023-04-01T02:09:48.446Z,100.00
2023-04-01T02:12:16.316Z,100.00
2023-04-01T02:14:45.585Z,100.00
2023-04-01T02:17:14.370Z,100.00
2023-04-01T02:19:44.020Z,100.00
2023-04-01T02:22:12.895Z,100.00
2023-04-01T02:24:41.093Z,100.00
2023-04-01T02:27:07.750Z,100.00
2023-04-01T02:29:34.314Z,100.00
2023-04-01T02:32:01.597Z,100.00
2023-04-01T02:34:28.122Z,100.00
2023-04-01T02:36:56.163Z,100.00
2023-04-01T02:39:22.885Z,99.97
2023-04-01T02:41:49.504Z,100.00
2023-04-01T02:44:16.423Z,99.54
2023-04-01T02:46:43.167Z,99.57
2023-04-01T02:49:09.766Z,99.07
2023-04-01T02:51:36.340Z,99.06
2023-04-01T02:54:03.056Z,99.42
2023-04-01T02:56:29.697Z,99.63
2023-04-01T02:58:56.214Z,99.71
2023-04-01T03:01:23.416Z,98.75
2023-04-01T03:03:50.485Z,98.61
2023-04-01T03:06:17.633Z,98.49
2023-04-01T03:08:44.507Z,98.39
2023-04-01T03:11:11.330Z,98.67
2023-04-01T03:13:38.149Z,98.28
2023-04-01T03:16:04.832Z,98.80
2023-04-01T03:18:31.368Z,98.47
2023-04-01T03:20:57.825Z,97.98
2023-04-01T03:23:25.309Z,97.70
2023-04-01T03:25:51.821Z,97.05
2023-04-01T03:28:18.453Z,97.67
2023-04-01T03:30:44.953Z,97.36
2023-04-01T03:33:11.523Z,97.45
2023-04-01T03:35:37.997Z,97.43
2023-04-01T03:38:04.501Z,97.73
2023-04-01T03:40:30.978Z,98.80
2023-04-01T03:42:57.550Z,98.75
2023-04-01T03:45:24.136Z,99.16
2023-04-01T03:47:50.662Z,99.71
2023-04-01T03:50:17.163Z,99.50
2023-04-01T03:52:43.599Z,99.20
2023-04-01T03:55:10.102Z,99.47
2023-04-01T03:57:36.583Z,99.71
2023-04-01T04:00:03.395Z,99.67
2023-04-01T04:02:29.908Z,99.63
2023-04-01T04:04:56.434Z,99.26
2023-04-01T04:07:22.920Z,99.37
2023-04-01T04:09:49.336Z,100.00
2023-04-01T04:12:15.953Z,100.00
2023-04-01T04:14:42.427Z,100.00
2023-04-01T04:17:14.704Z,100.00
2023-04-01T04:19:41.184Z,100.00
2023-04-01T04:22:07.742Z,100.00
2023-04-01T04:24:35.258Z,100.00
2023-04-01T04:27:01.808Z,100.00
2023-04-01T04:29:28.423Z,100.00
2023-04-01T04:31:54.896Z,100.00
2023-04-01T04:34:23.242Z,100.00
2023-04-01T04:36:49.893Z,100.00
2023-04-01T04:39:16.375Z,100.00
2023-04-01T04:41:42.805Z,100.00
2023-04-01T04:44:09.252Z,100.00
2023-04-01T04:46:37.140Z,100.00
2023-04-01T04:49:03.714Z,100.00
2023-04-01T04:51:30.181Z,100.00
2023-04-01T04:53:56.636Z,100.00
2023-04-01T04:56:23.460Z,100.00
2023-04-01T04:58:49.972Z,100.00
2023-04-01T05:01:17.403Z,100.00
2023-04-01T05:03:43.927Z,100.00
2023-04-01T05:06:11.277Z,100.00
2023-04-01T05:08:38.467Z,100.00
2023-04-01T05:11:04.998Z,100.00
2023-04-01T05:13:31.442Z,100.00
2023-04-01T05:15:57.887Z,100.00
2023-04-01T05:18:24.442Z,100.00
2023-04-01T05:20:52.004Z,100.00
2023-04-01T05:23:18.827Z,100.00
2023-04-01T05:25:46.246Z,100.00
2023-04-01T05:28:12.824Z,100.00
2023-04-01T05:30:41.402Z,100.00
2023-04-01T05:33:07.892Z,100.00
2023-04-01T05:35:34.518Z,100.00
2023-04-01T05:38:01.146Z,100.00
2023-04-01T05:40:28.476Z,100.00
2023-04-01T05:42:54.913Z,100.00
2023-04-01T05:45:21.771Z,100.00
2023-04-01T05:47:48.239Z,100.00
2023-04-01T05:50:14.755Z,100.00
2023-04-01T05:52:41.348Z,100.00
2023-04-01T05:55:07.960Z,100.00
2023-04-01T05:57:34.450Z,100.00
2023-04-01T06:00:01.088Z,100.00
2023-04-01T06:02:28.350Z,100.00
2023-04-01T06:05:01.145Z,100.00
2023-04-01T06:07:28.668Z,100.00
2023-04-01T06:09:55.772Z,100.00
2023-04-01T06:12:34.686Z,100.00
2023-04-01T06:15:19.668Z,100.00
2023-04-01T06:17:46.889Z,100.00
2023-04-01T06:20:32.107Z,100.00
2023-04-01T06:23:18.809Z,100.00
2023-04-01T06:25:51.424Z,100.00
2023-04-01T06:28:36.705Z,100.00
2023-04-01T06:31:08.893Z,100.00
2023-04-01T06:33:38.978Z,100.00
2023-04-01T06:36:24.568Z,100.00
2023-04-01T06:39:17.717Z,100.00
2023-04-01T06:41:49.909Z,100.00
2023-04-01T06:44:18.117Z,100.00
2023-04-01T06:46:44.634Z,100.00
2023-04-01T06:49:29.199Z,100.00
2023-04-01T06:52:01.723Z,100.00
2023-04-01T06:54:31.017Z,100.00
2023-04-01T06:57:03.601Z,100.00
2023-04-01T06:59:33.361Z,100.00
2023-04-01T07:02:06.962Z,100.00
2023-04-01T07:04:36.789Z,100.00
2023-04-01T07:07:06.118Z,100.00
2023-04-01T07:09:34.478Z,100.00
2023-04-01T07:12:03.414Z,100.00
2023-04-01T07:14:33.471Z,100.00
2023-04-01T07:17:06.048Z,100.00
2023-04-01T07:19:43.433Z,100.00
2023-04-01T07:22:15.803Z,100.00
2023-04-01T07:24:44.984Z,100.00
2023-04-01T07:27:12.160Z,100.00
2023-04-01T07:29:38.631Z,100.00
2023-04-01T07:32:23.905Z,100.00
2023-04-01T07:35:00.247Z,100.00
2023-04-01T07:37:44.983Z,96.06
2023-04-01T07:40:14.507Z,93.29
2023-04-01T07:42:59.976Z,94.10
2023-04-01T07:45:26.754Z,92.06
2023-04-01T07:48:06.337Z,91.42
2023-04-01T07:50:35.481Z,90.83
2023-04-01T07:53:01.943Z,89.64
2023-04-01T07:55:43.422Z,88.96
2023-04-01T07:58:12.702Z,86.44
2023-04-01T08:00:39.107Z,85.91
2023-04-01T08:03:24.527Z,84.44
2023-04-01T08:05:55.924Z,85.66
2023-04-01T08:08:26.178Z,81.70
2023-04-01T08:11:19.135Z,81.70
2023-04-01T08:13:45.572Z,81.43
2023-04-01T08:16:31.869Z,79.67
2023-04-01T08:19:12.795Z,81.42
2023-04-01T08:21:48.383Z,81.58
2023-04-01T08:24:24.778Z,77.41
2023-04-01T08:26:55.179Z,78.23
2023-04-01T08:29:24.700Z,76.19
2023-04-01T08:31:51.195Z,75.09
2023-04-01T08:34:21.048Z,75.89
2023-04-01T08:36:51.317Z,77.62
2023-04-01T08:39:23.487Z,76.48
2023-04-01T08:42:00.932Z,75.14
2023-04-01T08:44:27.356Z,71.92
2023-04-01T08:47:12.603Z,72.47
2023-04-01T08:50:02.585Z,70.74
2023-04-01T08:52:35.189Z,70.34
2023-04-01T08:55:07.701Z,68.68
2023-04-01T08:57:40.625Z,67.80
2023-04-01T09:00:28.818Z,69.54
2023-04-01T09:03:01.704Z,69.75
2023-04-01T09:05:37.854Z,69.27
2023-04-01T09:08:20.670Z,68.46
2023-04-01T09:11:13.699Z,69.77
2023-04-01T09:13:49.925Z,66.60
2023-04-01T09:16:36.618Z,68.17
2023-04-01T09:19:21.170Z,67.95
2023-04-01T09:21:53.561Z,63.40
2023-04-01T09:24:38.678Z,63.97
2023-04-01T09:27:05.140Z,62.08
2023-04-01T09:29:35.051Z,61.20
2023-04-01T09:32:20.241Z,61.63
2023-04-01T09:34:54.313Z,62.94
2023-04-01T09:37:22.872Z,61.15
2023-04-01T09:40:00.867Z,60.88
2023-04-01T09:42:45.817Z,60.61
2023-04-01T09:45:24.449Z,60.78
2023-04-01T09:48:09.618Z,59.48
2023-04-01T09:50:45.288Z,60.11
2023-04-01T09:53:31.952Z,59.54
2023-04-01T09:55:58.432Z,59.42
2023-04-01T09:58:56.922Z,61.40
2023-04-01T10:01:29.405Z,60.21
2023-04-01T10:04:14.320Z,59.30
2023-04-01T10:06:53.085Z,59.33
2023-04-01T10:09:34.391Z,59.59
2023-04-01T10:12:03.594Z,60.75
2023-04-01T10:14:36.351Z,58.23
2023-04-01T10:17:21.169Z,59.68
2023-04-01T10:20:07.645Z,58.96
2023-04-01T10:22:42.442Z,59.72
2023-04-01T10:25:27.499Z,58.93
2023-04-01T10:27:53.902Z,59.91
2023-04-01T10:30:50.027Z,60.34
2023-04-01T10:33:22.445Z,58.81
2023-04-01T10:36:07.700Z,58.51
2023-04-01T10:38:52.910Z,58.79
2023-04-01T10:41:30.524Z,57.01
2023-04-01T10:44:06.272Z,58.53
2023-04-01T10:46:51.617Z,59.08
2023-04-01T10:49:21.086Z,59.04
2023-04-01T10:51:47.527Z,59.50
2023-04-01T10:54:26.318Z,59.49
2023-04-01T10:57:02.248Z,60.23
2023-04-01T10:59:47.896Z,58.74
2023-04-01T11:02:46.908Z,59.22
2023-04-01T11:05:17.683Z,56.39
2023-04-01T11:08:04.888Z,56.87
2023-04-01T11:10:51.531Z,57.81
2023-04-01T11:13:33.363Z,56.53
2023-04-01T11:16:18.527Z,56.47
2023-04-01T11:18:49.134Z,58.12
2023-04-01T11:21:34.475Z,58.63
2023-04-01T11:24:06.729Z,58.58
2023-04-01T11:26:36.305Z,58.33
2023-04-01T11:29:16.498Z,57.75
2023-04-01T11:31:52.178Z,56.87
2023-04-01T11:34:30.350Z,57.49
2023-04-01T11:37:02.983Z,57.90
2023-04-01T11:39:38.686Z,58.28
2023-04-01T11:42:05.268Z,57.11
2023-04-01T11:44:33.973Z,56.53
2023-04-01T11:47:09.478Z,57.78
2023-04-01T11:49:54.624Z,56.90
2023-04-01T11:52:39.840Z,57.46
2023-04-01T11:55:12.303Z,57.35
2023-04-01T11:57:57.014Z,57.67
2023-04-01T12:00:32.108Z,57.50
2023-04-01T12:03:28.155Z,57.01
2023-04-01T12:06:03.729Z,57.09
2023-04-01T12:08:57.914Z,58.06
2023-04-01T12:11:31.281Z,57.62
2023-04-01T12:14:04.121Z,55.68
2023-04-01T12:16:32.925Z,55.36
2023-04-01T12:19:05.289Z,57.40
2023-04-01T12:21:38.996Z,56.34
2023-04-01T12:24:24.160Z,56.54
2023-04-01T12:27:23.229Z,56.15
2023-04-01T12:30:01.696Z,56.41
2023-04-01T12:32:47.055Z,56.41
2023-04-01T12:35:16.335Z,54.62
2023-04-01T12:37:57.800Z,55.73
2023-04-01T12:40:44.491Z,56.14
2023-04-01T12:43:29.709Z,56.45
2023-04-01T12:46:04.525Z,57.50
2023-04-01T12:48:44.172Z,55.77
2023-04-01T12:51:19.126Z,56.73
2023-04-01T12:54:01.028Z,56.83
2023-04-01T12:56:39.700Z,55.95
2023-04-01T12:59:29.413Z,55.98
2023-04-01T13:02:03.490Z,55.26
2023-04-01T13:04:45.915Z,54.69
2023-04-01T13:07:18.234Z,54.05
2023-04-01T13:10:03.931Z,53.28
2023-04-01T13:12:33.443Z,54.81
2023-04-01T13:15:11.892Z,54.32
2023-04-01T13:17:44.466Z,54.79
2023-04-01T13:20:10.912Z,55.48
2023-04-01T13:22:52.765Z,56.09
2023-04-01T13:25:22.021Z,54.62
2023-04-01T13:27:52.193Z,55.49
2023-04-01T13:30:31.936Z,55.14
2023-04-01T13:32:58.576Z,55.20
2023-04-01T13:35:44.015Z,55.71
2023-04-01T13:38:13.208Z,55.47
2023-04-01T13:41:03.674Z,55.13
2023-04-01T13:43:30.639Z,55.26
2023-04-01T13:45:57.073Z,55.58
2023-04-01T13:48:26.685Z,56.18
2023-04-01T13:50:53.132Z,55.12
2023-04-01T13:53:22.922Z,55.31
2023-04-01T13:56:05.904Z,54.91
2023-04-01T13:58:51.256Z,55.21
2023-04-01T14:01:47.231Z,55.29
2023-04-01T14:04:42.342Z,56.21
2023-04-01T14:07:27.675Z,56.72
2023-04-01T14:10:03.978Z,57.23
2023-04-01T14:12:49.340Z,57.00
2023-04-01T14:15:22.623Z,57.67
2023-04-01T14:17:49.409Z,57.07
2023-04-01T14:20:23.649Z,57.25
2023-04-01T14:23:06.300Z,57.49
2023-04-01T14:25:39.457Z,57.52
2023-04-01T14:28:25.051Z,57.54
2023-04-01T14:30:59.700Z,57.22
2023-04-01T14:33:32.173Z,56.62
2023-04-01T14:36:18.760Z,57.22
2023-04-01T14:39:09.433Z,57.58
2023-04-01T14:41:54.692Z,58.33
2023-04-01T14:44:40.076Z,58.02
2023-04-01T14:47:42.198Z,58.18
2023-04-01T14:50:17.821Z,58.28
2023-04-01T14:52:57.972Z,59.09
2023-04-01T14:55:56.727Z,59.37
2023-04-01T14:58:27.253Z,59.10
2023-04-01T15:01:05.836Z,58.96
2023-04-01T15:03:42.025Z,59.53
2023-04-01T15:06:08.489Z,59.69
2023-04-01T15:08:39.009Z,60.20
2023-04-01T15:11:14.522Z,60.68
2023-04-01T15:13:59.827Z,61.34
2023-04-01T15:16:38.097Z,61.53
2023-04-01T15:19:24.013Z,62.18
2023-04-01T15:21:56.721Z,62.45
2023-04-01T15:24:25.315Z,63.24
2023-04-01T15:26:57.650Z,64.79
2023-04-01T15:29:33.326Z,65.49
2023-04-01T15:32:29.547Z,65.94
2023-04-01T15:34:58.908Z,66.36
2023-04-01T15:37:33.797Z,66.18
2023-04-01T15:40:03.272Z,66.32
2023-04-01T15:42:41.933Z,67.52
2023-04-01T15:45:14.665Z,68.34
2023-04-01T15:47:45.523Z,68.93
2023-04-01T15:50:27.398Z,69.77
2023-04-01T15:52:53.802Z,70.96
2023-04-01T15:55:20.347Z,70.12
2023-04-01T15:57:47.469Z,71.23
2023-04-01T16:00:20.080Z,72.38
2023-04-01T16:02:50.047Z,72.17
2023-04-01T16:05:38.344Z,72.73
2023-04-01T16:08:24.150Z,74.12
2023-04-01T16:10:59.960Z,74.24
2023-04-01T16:13:46.124Z,74.77
2023-04-01T16:16:22.669Z,74.68
2023-04-01T16:18:51.858Z,74.25
2023-04-01T16:21:39.148Z,74.33
2023-04-01T16:24:25.521Z,73.89
2023-04-01T16:26:58.767Z,72.93
2023-04-01T16:29:34.402Z,72.42
2023-04-01T16:32:06.455Z,71.90
2023-04-01T16:34:39.104Z,71.33
2023-04-01T16:37:13.975Z,71.27
2023-04-01T16:39:47.564Z,71.30
2023-04-01T16:42:29.097Z,70.65
2023-04-01T16:44:58.754Z,70.62
2023-04-01T16:47:32.309Z,70.86
2023-04-01T16:50:08.058Z,70.27
2023-04-01T16:52:44.599Z,71.81
2023-04-01T16:55:18.872Z,72.90
2023-04-01T16:57:51.659Z,73.90
2023-04-01T17:00:36.680Z,74.56
2023-04-01T17:03:09.389Z,74.41
2023-04-01T17:05:38.969Z,74.56
2023-04-01T17:08:11.836Z,74.89
2023-04-01T17:10:47.310Z,74.51
2023-04-01T17:13:25.612Z,74.61
2023-04-01T17:16:07.513Z,74.48
2023-04-01T17:18:43.246Z,74.36
2023-04-01T17:21:28.119Z,74.28
2023-04-01T17:24:00.805Z,74.44
2023-04-01T17:26:36.511Z,74.16
2023-04-01T17:29:03.082Z,74.19
2023-04-01T17:31:29.505Z,74.79
2023-04-01T17:34:02.087Z,75.46
2023-04-01T17:36:34.535Z,75.44
2023-04-01T17:39:05.850Z,75.72
2023-04-01T17:41:50.827Z,75.97
2023-04-01T17:44:22.807Z,76.66
2023-04-01T17:47:09.189Z,77.39
2023-04-01T17:49:39.624Z,78.06
2023-04-01T17:52:08.813Z,77.55
2023-04-01T17:54:38.322Z,77.85
2023-04-01T17:57:23.450Z,78.33
2023-04-01T17:59:52.993Z,78.19
2023-04-01T18:02:45.514Z,78.93
2023-04-01T18:05:30.545Z,79.20
2023-04-01T18:08:00.038Z,80.24
2023-04-01T18:10:31.007Z,80.48
2023-04-01T18:13:07.062Z,80.75
2023-04-01T18:15:46.198Z,82.98
2023-04-01T18:18:31.324Z,83.27
2023-04-01T18:21:09.684Z,84.53
2023-04-01T18:23:39.932Z,84.09
2023-04-01T18:26:14.674Z,83.77
2023-04-01T18:28:44.911Z,83.33
2023-04-01T18:31:18.443Z,83.95
2023-04-01T18:33:51.972Z,84.37
2023-04-01T18:36:42.483Z,84.48
2023-04-01T18:39:12.666Z,83.91
2023-04-01T18:41:42.238Z,83.94
2023-04-01T18:44:27.067Z,83.53
2023-04-01T18:47:05.804Z,83.27
2023-04-01T18:49:42.990Z,82.68
2023-04-01T18:52:18.685Z,82.11
2023-04-01T18:55:11.265Z,82.04
2023-04-01T18:57:41.130Z,82.03
2023-04-01T19:00:17.326Z,81.69
2023-04-01T19:02:51.889Z,81.93
2023-04-01T19:05:20.483Z,82.67
2023-04-01T19:07:51.384Z,82.57
2023-04-01T19:10:44.041Z,82.30
2023-04-01T19:13:19.474Z,82.13
2023-04-01T19:16:10.244Z,82.05
2023-04-01T19:18:55.397Z,82.03
2023-04-01T19:21:30.786Z,81.72
2023-04-01T19:24:17.334Z,81.53
2023-04-01T19:27:06.900Z,82.38
2023-04-01T19:29:52.204Z,82.82
2023-04-01T19:32:37.417Z,82.48
2023-04-01T19:35:19.489Z,81.99
2023-04-01T19:37:55.515Z,82.07
2023-04-01T19:40:40.941Z,82.93
2023-04-01T19:43:23.613Z,83.62
2023-04-01T19:46:06.745Z,85.20
2023-04-01T19:48:33.361Z,86.34
2023-04-01T19:51:08.957Z,86.00
2023-04-01T19:53:41.630Z,86.60
2023-04-01T19:56:17.540Z,86.57
2023-04-01T19:58:53.333Z,86.64
2023-04-01T20:01:45.091Z,87.91
2023-04-01T20:04:11.892Z,88.51
2023-04-01T20:06:38.369Z,88.79
2023-04-01T20:09:37.615Z,87.91
2023-04-01T20:12:10.006Z,87.75
2023-04-01T20:14:52.688Z,88.88
2023-04-01T20:17:19.107Z,88.36
2023-04-01T20:20:05.928Z,88.83
2023-04-01T20:22:44.715Z,91.36
2023-04-01T20:25:29.878Z,90.10
2023-04-01T20:28:15.231Z,90.04
2023-04-01T20:30:44.410Z,89.67
2023-04-01T20:33:29.476Z,90.19
2023-04-01T20:36:07.209Z,91.32
2023-04-01T20:38:52.714Z,91.59
2023-04-01T20:41:27.549Z,91.23
2023-04-01T20:44:02.644Z,91.11
2023-04-01T20:46:48.235Z,90.75
2023-04-01T20:49:33.340Z,90.55
2023-04-01T20:51:59.758Z,90.78
2023-04-01T20:54:32.393Z,91.03
2023-04-01T20:57:08.009Z,91.41
2023-04-01T20:59:46.479Z,90.89
2023-04-01T21:02:22.111Z,90.81
2023-04-01T21:05:06.813Z,91.49
2023-04-01T21:07:49.416Z,91.38
2023-04-01T21:10:30.809Z,90.67
2023-04-01T21:13:13.113Z,91.01
2023-04-01T21:15:48.665Z,91.52
2023-04-01T21:18:15.108Z,90.88
2023-04-01T21:20:53.753Z,91.19
2023-04-01T21:23:30.239Z,91.28
2023-04-01T21:25:56.949Z,91.86
2023-04-01T21:28:31.628Z,92.08
2023-04-01T21:31:07.342Z,92.30
2023-04-01T21:33:33.787Z,92.27
2023-04-01T21:36:09.455Z,92.39
2023-04-01T21:38:54.884Z,93.54
2023-04-01T21:41:24.400Z,92.94
2023-04-01T21:43:50.978Z,92.79
2023-04-01T21:46:42.015Z,92.55
2023-04-01T21:49:11.562Z,91.90
2023-04-01T21:51:41.095Z,92.52
2023-04-01T21:54:07.505Z,92.50
2023-04-01T21:56:57.254Z,92.41
2023-04-01T21:59:32.684Z,92.12
2023-04-01T22:01:59.179Z,92.29
2023-04-01T22:04:25.654Z,91.70
2023-04-01T22:06:56.391Z,92.01
2023-04-01T22:09:28.775Z,92.17
2023-04-01T22:11:55.504Z,91.46
2023-04-01T22:14:34.469Z,91.24
2023-04-01T22:17:04.622Z,91.58
2023-04-01T22:19:51.904Z,91.87
2023-04-01T22:22:31.867Z,91.53
2023-04-01T22:25:01.453Z,92.30
2023-04-01T22:27:28.098Z,92.55
2023-04-01T22:30:03.972Z,91.75
2023-04-01T22:32:36.580Z,92.35
2023-04-01T22:35:12.480Z,91.81
2023-04-01T22:37:58.046Z,92.03
2023-04-01T22:40:27.270Z,91.97
2023-04-01T22:42:57.887Z,91.97
2023-04-01T22:45:24.303Z,92.08
2023-04-01T22:48:02.283Z,92.16
2023-04-01T22:50:37.925Z,92.12
2023-04-01T22:53:09.064Z,92.90
2023-04-01T22:55:39.123Z,92.61
2023-04-01T22:58:26.857Z,93.34
2023-04-01T23:00:56.367Z,93.89
2023-04-01T23:03:26.633Z,93.39
2023-04-01T23:05:54.254Z,95.06
2023-04-01T23:08:27.144Z,94.68
2023-04-01T23:10:53.830Z,95.07
2023-04-01T23:13:23.439Z,94.43
2023-04-01T23:15:52.712Z,95.80
2023-04-01T23:18:42.369Z,94.96
2023-04-01T23:21:15.034Z,93.67
2023-04-01T23:24:00.605Z,93.16
2023-04-01T23:26:33.682Z,92.83
2023-04-01T23:29:00.804Z,93.34
2023-04-01T23:31:29.059Z,93.41
2023-04-01T23:33:57.037Z,93.36
2023-04-01T23:36:23.608Z,93.56
2023-04-01T23:38:50.667Z,94.09
2023-04-01T23:41:23.149Z,93.70
2023-04-01T23:44:09.839Z,94.34
2023-04-01T23:46:38.208Z,94.21
2023-04-01T23:49:06.124Z,94.64
2023-04-01T23:51:40.619Z,96.09
2023-04-01T23:54:39.676Z,96.06
2023-04-01T23:57:12.060Z,96.12
2023-04-01T23:59:38.561Z,94.99
